Time;durP1;ratioP1;P1;durP2;ratioP2;P2;SDS_P1;SDS_P2;PMS_P1;PMS_P2;Temp;Humidity;BMP_temperature;BMP_pressure;BME280_temperature;BME280_humidity;BME280_pressure;Samples;Min_cycle;Max_cycle;Signal;HPM_P1;HPM_P2
2022/01/01 00:01:17;;;;;;;15.27;9.20;;;;;;;;;;5067945;28;20509;-47
2022/01/01 00:03:43;;;;;;;10.80;7.70;;;;;;;;;;5087575;28;20035;-46
2022/01/01 00:06:10;;;;;;;10.57;7.15;;;;;;;;;;5096390;28;20470;-46
2022/01/01 00:08:36;;;;;;;9.88;6.72;;;;;;;;;;5102042;28;20104;-51
2022/01/01 00:11:02;;;;;;;8.32;5.68;;;;;;;;;;5107420;28;20581;-45
2022/01/01 00:13:28;;;;;;;8.63;5.90;;;;;;;;;;5066944;28;20043;-45
2022/01/01 00:15:54;;;;;;;6.40;4.72;;;;;;;;;;5091786;28;20025;-46
2022/01/01 00:18:20;;;;;;;8.52;5.60;;;;;;;;;;5102087;28;20027;-47
2022/01/01 00:20:46;;;;;;;6.82;4.88;;;;;;;;;;5104119;28;20061;-46
2022/01/01 00:23:13;;;;;;;7.97;5.28;;;;;;;;;;5086218;28;20073;-46
2022/01/01 00:25:39;;;;;;;7.45;5.35;;;;;;;;;;5085734;28;20051;-45
2022/01/01 00:28:07;;;;;;;7.50;5.85;;;;;;;;;;5085489;28;20225;-45
2022/01/01 00:30:34;;;;;;;7.18;5.22;;;;;;;;;;5085769;28;20558;-46
2022/01/01 00:33:00;;;;;;;6.97;5.40;;;;;;;;;;5068367;28;20223;-47
2022/01/01 00:35:26;;;;;;;8.45;6.00;;;;;;;;;;5085673;28;20529;-46
2022/01/01 00:37:52;;;;;;;7.88;5.68;;;;;;;;;;5086118;28;20024;-46
2022/01/01 00:40:20;;;;;;;7.85;5.88;;;;;;;;;;5085505;28;20032;-45
2022/01/01 00:42:46;;;;;;;8.25;6.30;;;;;;;;;;5067121;28;20027;-47
2022/01/01 00:45:12;;;;;;;10.90;7.82;;;;;;;;;;5095859;28;20039;-47
2022/01/01 00:47:38;;;;;;;10.57;7.72;;;;;;;;;;5106115;28;20106;-45
2022/01/01 00:50:05;;;;;;;11.02;7.90;;;;;;;;;;5106076;28;20111;-46
2022/01/01 00:52:31;;;;;;;13.13;8.65;;;;;;;;;;5106297;28;20125;-47
2022/01/01 00:54:57;;;;;;;12.32;8.27;;;;;;;;;;5103133;28;20077;-47
2022/01/01 00:57:24;;;;;;;10.55;7.72;;;;;;;;;;5094046;28;20024;-46
2022/01/01 00:59:51;;;;;;;10.88;7.68;;;;;;;;;;5084363;28;20028;-46
2022/01/01 01:02:16;;;;;;;11.55;7.70;;;;;;;;;;5093044;28;20081;-46
2022/01/01 01:04:42;;;;;;;11.32;7.43;;;;;;;;;;5087147;28;20027;-46
2022/01/01 01:07:12;;;;;;;9.55;7.05;;;;;;;;;;5105471;28;20039;-46
2022/01/01 01:09:39;;;;;;;9.23;6.45;;;;;;;;;;5084786;28;20571;-47
2022/01/01 01:12:05;;;;;;;9.52;6.72;;;;;;;;;;5096835;28;20024;-46
2022/01/01 01:14:39;;;;;;;8.70;6.45;;;;;;;;;;5085249;28;20450;-47
2022/01/01 01:17:05;;;;;;;;;;;;;;;;;;5065285;28;20074;-46
2022/01/01 01:19:33;;;;;;;9.20;6.20;;;;;;;;;;5073125;28;20382;-46
2022/01/01 01:21:59;;;;;;;7.82;5.75;;;;;;;;;;5105824;28;20093;-47
2022/01/01 01:24:26;;;;;;;8.65;5.78;;;;;;;;;;5105172;28;20032;-46
2022/01/01 01:26:53;;;;;;;8.88;5.90;;;;;;;;;;5080031;28;20424;-47
2022/01/01 01:29:19;;;;;;;9.48;5.75;;;;;;;;;;5083543;28;20498;-46
2022/01/01 01:31:46;;;;;;;9.43;6.35;;;;;;;;;;5082925;28;20028;-46
2022/01/01 01:34:13;;;;;;;9.73;6.05;;;;;;;;;;5084999;28;20036;-48
2022/01/01 01:36:39;;;;;;;8.60;5.70;;;;;;;;;;5084498;28;20063;-49
2022/01/01 01:39:05;;;;;;;9.00;6.28;;;;;;;;;;5097008;28;20464;-48
2022/01/01 01:41:31;;;;;;;9.70;6.68;;;;;;;;;;5074676;28;20031;-46
2022/01/01 01:44:03;;;;;;;8.77;6.38;;;;;;;;;;5088379;28;20023;-47
2022/01/01 01:46:29;;;;;;;8.77;6.10;;;;;;;;;;5104541;28;20028;-47
2022/01/01 01:48:56;;;;;;;10.02;6.63;;;;;;;;;;5105356;28;20027;-48
2022/01/01 01:51:22;;;;;;;8.07;6.00;;;;;;;;;;5090209;28;20858;-47
2022/01/01 01:53:48;;;;;;;8.70;5.57;;;;;;;;;;5106891;28;20023;-46
2022/01/01 01:56:14;;;;;;;7.97;5.70;;;;;;;;;;5105058;28;20050;-46
2022/01/01 01:58:41;;;;;;;7.80;5.43;;;;;;;;;;5086451;28;20090;-46
2022/01/01 02:03:37;;;;;;;7.40;5.28;;;;;;;;;;5106414;28;20076;-50
2022/01/01 02:06:06;;;;;;;6.68;5.00;;;;;;;;;;5105109;28;20043;-49
2022/01/01 02:08:32;;;;;;;7.32;4.88;;;;;;;;;;5106890;28;20030;-46
2022/01/01 02:10:58;;;;;;;6.47;4.38;;;;;;;;;;5105407;28;20039;-46
2022/01/01 02:13:26;;;;;;;8.20;5.07;;;;;;;;;;5086656;28;20051;-47
2022/01/01 02:18:19;;;;;;;4.72;3.53;;;;;;;;;;5086000;28;20475;-48
2022/01/01 02:20:49;;;;;;;6.70;4.90;;;;;;;;;;5085585;28;20604;-49
2022/01/01 02:23:21;;;;;;;7.57;3.53;;;;;;;;;;5103373;28;20497;-48
2022/01/01 02:25:49;;;;;;;4.95;3.85;;;;;;;;;;5106429;28;20398;-47
2022/01/01 02:28:15;;;;;;;4.43;3.55;;;;;;;;;;5087945;28;20545;-44
2022/01/01 02:30:41;;;;;;;4.03;3.25;;;;;;;;;;5087066;28;20020;-45
2022/01/01 02:33:08;;;;;;;4.28;3.10;;;;;;;;;;5073325;28;20884;-45
2022/01/01 02:35:34;;;;;;;3.45;2.97;;;;;;;;;;5084696;28;20034;-46
2022/01/01 02:38:00;;;;;;;3.17;2.63;;;;;;;;;;5086894;28;20383;-46
2022/01/01 02:40:26;;;;;;;3.15;2.85;;;;;;;;;;5096894;28;20547;-46
2022/01/01 02:42:54;;;;;;;3.65;3.15;;;;;;;;;;5085343;28;20791;-49
2022/01/01 02:45:20;;;;;;;4.57;3.17;;;;;;;;;;5085794;28;20032;-49
2022/01/01 02:47:46;;;;;;;3.80;3.08;;;;;;;;;;5086144;28;20097;-46
2022/01/01 02:50:13;;;;;;;4.28;3.50;;;;;;;;;;5086092;28;20024;-46
2022/01/01 02:52:39;;;;;;;4.80;3.38;;;;;;;;;;5088296;28;20431;-50
2022/01/01 02:55:06;;;;;;;4.50;3.60;;;;;;;;;;5106302;28;20033;-46
2022/01/01 02:57:32;;;;;;;5.25;3.88;;;;;;;;;;5094190;28;20020;-46
2022/01/01 02:59:58;;;;;;;4.97;3.75;;;;;;;;;;5086543;28;20494;-47
2022/01/01 03:02:24;;;;;;;4.68;3.78;;;;;;;;;;5100472;28;20093;-47
2022/01/01 03:04:50;;;;;;;6.00;4.70;;;;;;;;;;5106223;28;20070;-46
2022/01/01 03:07:16;;;;;;;6.38;4.50;;;;;;;;;;5084392;28;20546;-46
2022/01/01 03:09:42;;;;;;;9.95;5.13;;;;;;;;;;5106109;28;20095;-47
2022/01/01 03:12:09;;;;;;;7.03;5.22;;;;;;;;;;5095567;28;20047;-47
2022/01/01 03:14:36;;;;;;;6.50;4.60;;;;;;;;;;5085589;28;20585;-45
2022/01/01 03:17:03;;;;;;;5.75;4.78;;;;;;;;;;5085853;28;20460;-48
2022/01/01 03:19:29;;;;;;;6.07;4.78;;;;;;;;;;5086351;28;20085;-47
2022/01/01 03:21:56;;;;;;;7.50;5.38;;;;;;;;;;5093481;28;20505;-48
2022/01/01 03:24:22;;;;;;;8.57;6.10;;;;;;;;;;5108008;28;20741;-48
2022/01/01 03:26:48;;;;;;;9.40;6.47;;;;;;;;;;5103409;28;20119;-46
2022/01/01 03:29:14;;;;;;;9.48;6.90;;;;;;;;;;5088768;28;20401;-45
2022/01/01 03:31:40;;;;;;;9.30;6.95;;;;;;;;;;5107159;28;20035;-47
2022/01/01 03:34:06;;;;;;;9.35;6.57;;;;;;;;;;5109884;28;20032;-45
2022/01/01 03:36:32;;;;;;;7.95;5.65;;;;;;;;;;5109407;28;20020;-49
2022/01/01 03:38:59;;;;;;;6.93;5.25;;;;;;;;;;5108305;28;20078;-46
2022/01/01 03:41:26;;;;;;;7.05;5.60;;;;;;;;;;5103302;28;20384;-45
2022/01/01 03:43:52;;;;;;;7.47;4.40;;;;;;;;;;5089048;28;20035;-47
2022/01/01 03:46:18;;;;;;;6.75;4.97;;;;;;;;;;5088692;28;20445;-47
2022/01/01 03:48:44;;;;;;;6.72;5.07;;;;;;;;;;5089011;28;20055;-46
2022/01/01 03:51:11;;;;;;;6.32;4.88;;;;;;;;;;5088075;28;20032;-45
2022/01/01 03:53:38;;;;;;;6.70;5.28;;;;;;;;;;5088581;28;20539;-46
2022/01/01 03:56:04;;;;;;;6.35;5.05;;;;;;;;;;5088567;28;20048;-46
2022/01/01 03:58:30;;;;;;;6.72;5.05;;;;;;;;;;5088538;28;20036;-45
2022/01/01 04:00:56;;;;;;;7.93;5.60;;;;;;;;;;5088828;28;20409;-45
2022/01/01 04:03:22;;;;;;;7.57;5.40;;;;;;;;;;5104610;28;20876;-45
2022/01/01 04:05:48;;;;;;;6.70;5.22;;;;;;;;;;5108998;28;20031;-46
2022/01/01 04:08:15;;;;;;;6.30;4.43;;;;;;;;;;5108678;28;20035;-47
2022/01/01 04:10:41;;;;;;;6.18;4.53;;;;;;;;;;5108346;28;20028;-45
2022/01/01 04:13:08;;;;;;;6.63;4.60;;;;;;;;;;5090031;28;20254;-48
2022/01/01 04:15:35;;;;;;;5.60;4.10;;;;;;;;;;5086590;28;20499;-47
2022/01/01 04:18:04;;;;;;;7.53;4.70;;;;;;;;;;5103746;28;20024;-46
2022/01/01 04:20:30;;;;;;;6.10;4.15;;;;;;;;;;5108967;28;20051;-45
2022/01/01 04:22:57;;;;;;;5.85;4.30;;;;;;;;;;5092720;28;20020;-45
2022/01/01 04:25:23;;;;;;;5.28;4.20;;;;;;;;;;5098562;28;20084;-46
2022/01/01 04:27:50;;;;;;;4.75;4.13;;;;;;;;;;5093680;28;20244;-45
2022/01/01 04:30:16;;;;;;;6.15;4.53;;;;;;;;;;5088296;28;20058;-45
2022/01/01 04:32:43;;;;;;;5.70;4.10;;;;;;;;;;5089447;28;20028;-45
2022/01/01 04:35:09;;;;;;;4.72;3.88;;;;;;;;;;5087723;28;20060;-47
2022/01/01 04:37:36;;;;;;;6.30;4.60;;;;;;;;;;5087824;28;20129;-45
2022/01/01 04:40:03;;;;;;;5.63;4.05;;;;;;;;;;5086294;28;20507;-46
2022/01/01 04:42:30;;;;;;;5.63;3.95;;;;;;;;;;5086487;28;20035;-46
2022/01/01 04:44:57;;;;;;;6.35;4.40;;;;;;;;;;5087154;28;20035;-46
2022/01/01 04:47:24;;;;;;;6.70;3.97;;;;;;;;;;5087514;28;20028;-46
2022/01/01 04:49:50;;;;;;;5.65;4.25;;;;;;;;;;5087892;28;20035;-47
2022/01/01 04:52:16;;;;;;;5.32;3.97;;;;;;;;;;5086778;28;20099;-46
2022/01/01 04:54:43;;;;;;;6.07;4.10;;;;;;;;;;5087786;28;20054;-47
2022/01/01 04:57:10;;;;;;;7.15;4.75;;;;;;;;;;5088009;28;20175;-45
2022/01/01 04:59:36;;;;;;;5.85;3.88;;;;;;;;;;5094120;28;20085;-45
2022/01/01 05:02:03;;;;;;;5.85;4.32;;;;;;;;;;5102633;28;20028;-45
2022/01/01 05:04:29;;;;;;;5.95;4.22;;;;;;;;;;5087407;28;20043;-47
2022/01/01 05:06:55;;;;;;;5.30;4.03;;;;;;;;;;5087305;28;20081;-45
2022/01/01 05:09:21;;;;;;;6.28;4.47;;;;;;;;;;5087190;28;20036;-45
2022/01/01 05:11:48;;;;;;;5.38;3.80;;;;;;;;;;5086996;28;20020;-47
2022/01/01 05:14:14;;;;;;;7.07;4.10;;;;;;;;;;5090594;28;20036;-47
2022/01/01 05:16:40;;;;;;;6.72;4.30;;;;;;;;;;5106831;28;20034;-47
2022/01/01 05:19:07;;;;;;;6.53;3.97;;;;;;;;;;5107805;28;20748;-46
2022/01/01 05:21:36;;;;;;;7.05;4.68;;;;;;;;;;5092267;28;20043;-46
2022/01/01 05:24:03;;;;;;;6.22;4.68;;;;;;;;;;5106989;28;20421;-46
2022/01/01 05:26:29;;;;;;;6.03;4.32;;;;;;;;;;5103819;28;20099;-46
2022/01/01 05:28:55;;;;;;;6.70;4.85;;;;;;;;;;5087109;28;20024;-45
2022/01/01 05:31:21;;;;;;;6.28;4.40;;;;;;;;;;5087150;28;20394;-45
2022/01/01 05:33:48;;;;;;;7.50;4.88;;;;;;;;;;5086083;28;20035;-46
2022/01/01 05:36:15;;;;;;;8.45;5.25;;;;;;;;;;5086778;28;20024;-46
2022/01/01 05:38:41;;;;;;;7.72;4.95;;;;;;;;;;5095252;28;20035;-46
2022/01/01 05:41:07;;;;;;;6.25;4.60;;;;;;;;;;5106910;28;20535;-47
2022/01/01 05:43:33;;;;;;;6.40;4.53;;;;;;;;;;5103966;28;20062;-45
2022/01/01 05:46:00;;;;;;;6.25;4.40;;;;;;;;;;5086644;28;20407;-46
2022/01/01 05:48:26;;;;;;;5.50;3.92;;;;;;;;;;5106998;28;20514;-45
2022/01/01 05:50:52;;;;;;;4.88;3.72;;;;;;;;;;5107052;28;20020;-47
2022/01/01 05:53:19;;;;;;;6.28;4.28;;;;;;;;;;5106804;28;20035;-45
2022/01/01 05:55:45;;;;;;;6.57;4.25;;;;;;;;;;5107011;28;20023;-46
2022/01/01 05:58:11;;;;;;;6.93;4.45;;;;;;;;;;5105695;28;20494;-45
2022/01/01 06:00:37;;;;;;;5.50;4.25;;;;;;;;;;5106732;28;20399;-46
2022/01/01 06:03:04;;;;;;;6.38;4.38;;;;;;;;;;5106785;28;20049;-45
2022/01/01 06:05:30;;;;;;;7.15;4.72;;;;;;;;;;5106585;28;20447;-49
2022/01/01 06:07:57;;;;;;;6.22;4.38;;;;;;;;;;5106812;28;20047;-49
2022/01/01 06:10:24;;;;;;;6.45;4.20;;;;;;;;;;5104987;28;20487;-46
2022/01/01 06:12:50;;;;;;;5.38;3.67;;;;;;;;;;5092043;28;20040;-48
2022/01/01 06:15:16;;;;;;;6.78;4.15;;;;;;;;;;5086446;28;20051;-47
2022/01/01 06:17:42;;;;;;;6.45;4.05;;;;;;;;;;5086934;28;20108;-46
2022/01/01 06:20:09;;;;;;;6.78;4.50;;;;;;;;;;5085847;28;20161;-47
2022/01/01 06:22:35;;;;;;;7.00;4.28;;;;;;;;;;5085731;28;20024;-46
2022/01/01 06:25:01;;;;;;;6.20;3.83;;;;;;;;;;5086492;28;20032;-46
2022/01/01 06:27:27;;;;;;;6.95;4.10;;;;;;;;;;5091142;28;20180;-46
2022/01/01 06:29:53;;;;;;;5.55;3.95;;;;;;;;;;5106561;28;20446;-47
2022/01/01 06:32:19;;;;;;;6.18;4.43;;;;;;;;;;5103500;28;20019;-46
2022/01/01 06:34:45;;;;;;;6.93;4.28;;;;;;;;;;5106596;28;20087;-47
2022/01/01 06:37:11;;;;;;;6.47;4.10;;;;;;;;;;5105775;28;20593;-47
2022/01/01 06:39:37;;;;;;;6.00;4.25;;;;;;;;;;5086228;28;20558;-45
2022/01/01 06:42:03;;;;;;;5.85;4.03;;;;;;;;;;5089938;28;20012;-46
2022/01/01 06:44:29;;;;;;;6.07;4.15;;;;;;;;;;5086906;28;20796;-46
2022/01/01 06:46:55;;;;;;;5.78;4.20;;;;;;;;;;5086692;28;20045;-46
2022/01/01 06:49:21;;;;;;;6.60;4.35;;;;;;;;;;5085891;28;20418;-49
2022/01/01 06:51:48;;;;;;;6.32;3.95;;;;;;;;;;5086140;28;20024;-46
2022/01/01 06:54:14;;;;;;;5.90;3.75;;;;;;;;;;5089532;28;20030;-45
2022/01/01 06:56:40;;;;;;;5.03;3.58;;;;;;;;;;5101192;28;20024;-45
2022/01/01 06:59:06;;;;;;;5.05;3.50;;;;;;;;;;5088251;28;20024;-46
2022/01/01 07:01:32;;;;;;;4.30;3.40;;;;;;;;;;5089494;28;20022;-45
2022/01/01 07:03:58;;;;;;;4.70;3.47;;;;;;;;;;5091917;28;20028;-45
2022/01/01 07:06:24;;;;;;;4.65;3.38;;;;;;;;;;5110516;28;20077;-44
2022/01/01 07:08:50;;;;;;;4.57;3.30;;;;;;;;;;5109992;28;20444;-48
2022/01/01 07:11:16;;;;;;;4.07;2.97;;;;;;;;;;5108576;28;20503;-45
2022/01/01 07:13:42;;;;;;;5.55;3.45;;;;;;;;;;5088686;28;20144;-45
2022/01/01 07:16:08;;;;;;;6.03;3.90;;;;;;;;;;5089836;28;20028;-46
2022/01/01 07:18:34;;;;;;;6.97;4.00;;;;;;;;;;5089417;28;20487;-46
2022/01/01 07:21:00;;;;;;;5.28;3.42;;;;;;;;;;5089683;28;20020;-45
2022/01/01 07:23:26;;;;;;;5.25;3.88;;;;;;;;;;5089215;28;20035;-47
2022/01/01 07:25:52;;;;;;;5.18;4.15;;;;;;;;;;5088961;28;20417;-47
2022/01/01 07:28:18;;;;;;;4.70;3.53;;;;;;;;;;5098874;28;20536;-45
2022/01/01 07:30:45;;;;;;;6.13;3.72;;;;;;;;;;5109424;28;20027;-46
2022/01/01 07:33:15;;;;;;;5.90;3.92;;;;;;;;;;5098315;28;20093;-47
2022/01/01 07:35:41;;;;;;;5.07;3.78;;;;;;;;;;5089119;28;20028;-45
2022/01/01 07:38:07;;;;;;;6.45;3.92;;;;;;;;;;5107007;28;20055;-46
2022/01/01 07:40:34;;;;;;;5.60;4.18;;;;;;;;;;5109345;28;20019;-45
2022/01/01 07:43:01;;;;;;;5.97;3.85;;;;;;;;;;5092001;28;20448;-48
2022/01/01 07:45:27;;;;;;;5.63;3.50;;;;;;;;;;5088821;28;20024;-45
2022/01/01 07:47:53;;;;;;;6.22;3.78;;;;;;;;;;5088309;28;20521;-46
2022/01/01 07:50:20;;;;;;;5.65;3.47;;;;;;;;;;5087796;28;20032;-45
2022/01/01 07:52:46;;;;;;;4.93;3.22;;;;;;;;;;5087982;28;20858;-46
2022/01/01 07:55:12;;;;;;;4.68;3.40;;;;;;;;;;5088893;28;20050;-46
2022/01/01 07:57:38;;;;;;;5.10;3.50;;;;;;;;;;5099261;28;20601;-45
2022/01/01 08:00:07;;;;;;;5.65;3.85;;;;;;;;;;5109338;28;20027;-46
2022/01/01 08:02:38;;;;;;;5.63;3.95;;;;;;;;;;5108909;28;20020;-47
2022/01/01 08:05:04;;;;;;;5.25;3.38;;;;;;;;;;5086669;28;20024;-46
2022/01/01 08:07:30;;;;;;;6.53;3.90;;;;;;;;;;5087939;28;20052;-48
2022/01/01 08:09:56;;;;;;;5.78;3.58;;;;;;;;;;5088298;28;20031;-47
2022/01/01 08:12:22;;;;;;;4.30;3.58;;;;;;;;;;5096320;28;20028;-46
2022/01/01 08:14:48;;;;;;;5.55;3.80;;;;;;;;;;5093009;28;20699;-46
2022/01/01 08:17:14;;;;;;;5.53;4.07;;;;;;;;;;5088649;28;20444;-45
2022/01/01 08:19:40;;;;;;;6.60;4.68;;;;;;;;;;5088106;28;20024;-47
2022/01/01 08:22:07;;;;;;;8.07;5.20;;;;;;;;;;5088464;28;20028;-46
2022/01/01 08:24:33;;;;;;;10.45;6.15;;;;;;;;;;5087090;28;20028;-46
2022/01/01 08:27:01;;;;;;;9.10;6.18;;;;;;;;;;5086403;28;20020;-45
2022/01/01 08:29:28;;;;;;;8.45;5.75;;;;;;;;;;5087095;28;20031;-46
2022/01/01 08:31:56;;;;;;;8.35;5.72;;;;;;;;;;5088897;28;20028;-46
2022/01/01 08:34:22;;;;;;;8.75;5.75;;;;;;;;;;5097915;28;20041;-47
2022/01/01 08:36:48;;;;;;;7.20;5.35;;;;;;;;;;5103964;28;20028;-45
2022/01/01 08:39:15;;;;;;;8.88;5.55;;;;;;;;;;5088217;28;20047;-48
2022/01/01 08:41:42;;;;;;;7.43;5.05;;;;;;;;;;5086555;28;20507;-46
2022/01/01 08:44:08;;;;;;;7.68;5.10;;;;;;;;;;5089106;28;20062;-45
2022/01/01 08:46:34;;;;;;;6.68;4.80;;;;;;;;;;5107953;28;20028;-46
2022/01/01 08:49:02;;;;;;;5.95;4.03;;;;;;;;;;5096476;28;20024;-46
2022/01/01 08:51:29;;;;;;;7.47;4.78;;;;;;;;;;5086397;28;20111;-47
2022/01/01 08:53:57;;;;;;;7.15;5.05;;;;;;;;;;5088621;28;20554;-46
2022/01/01 08:56:23;;;;;;;6.72;4.80;;;;;;;;;;5087368;28;20020;-45
2022/01/01 08:58:49;;;;;;;7.55;5.10;;;;;;;;;;5085275;28;20016;-46
2022/01/01 09:01:16;;;;;;;6.15;4.57;;;;;;;;;;5086510;28;20471;-46
2022/01/01 09:03:42;;;;;;;6.32;4.60;;;;;;;;;;5087693;28;20101;-47
2022/01/01 09:06:09;;;;;;;7.53;5.00;;;;;;;;;;5087243;28;20641;-47
2022/01/01 09:08:39;;;;;;;8.18;4.47;;;;;;;;;;5085921;28;20027;-48
2022/01/01 09:11:05;;;;;;;7.40;4.80;;;;;;;;;;5087213;28;20111;-45
2022/01/01 09:13:31;;;;;;;6.70;4.70;;;;;;;;;;5081678;28;20111;-48
2022/01/01 09:15:59;;;;;;;4.68;4.03;;;;;;;;;;5085423;28;20089;-45
2022/01/01 09:18:25;;;;;;;5.85;3.92;;;;;;;;;;5081967;28;20074;-45
2022/01/01 09:20:51;;;;;;;5.72;3.97;;;;;;;;;;5093795;28;20027;-46
2022/01/01 09:23:17;;;;;;;5.43;4.13;;;;;;;;;;5087558;28;20564;-46
2022/01/01 09:25:43;;;;;;;5.88;4.25;;;;;;;;;;5097069;28;20398;-49
2022/01/01 09:28:09;;;;;;;5.10;3.83;;;;;;;;;;5089500;28;20789;-47
2022/01/01 09:30:35;;;;;;;6.47;4.05;;;;;;;;;;5087188;28;20031;-49
2022/01/01 09:33:02;;;;;;;4.53;3.33;;;;;;;;;;5080842;28;20495;-49
2022/01/01 09:35:28;;;;;;;6.30;4.00;;;;;;;;;;5067645;28;20024;-49
2022/01/01 09:37:55;;;;;;;4.70;3.50;;;;;;;;;;5077771;28;20043;-47
2022/01/01 09:40:21;;;;;;;5.03;3.65;;;;;;;;;;5087469;28;20445;-50
2022/01/01 09:42:47;;;;;;;7.10;4.75;;;;;;;;;;5085012;28;20024;-49
2022/01/01 09:45:13;;;;;;;6.88;4.57;;;;;;;;;;5099674;28;20516;-47
2022/01/01 09:47:39;;;;;;;7.38;5.07;;;;;;;;;;5098174;28;20028;-46
2022/01/01 09:50:06;;;;;;;5.78;4.20;;;;;;;;;;5102465;28;20031;-49
2022/01/01 09:52:33;;;;;;;6.30;4.38;;;;;;;;;;5090675;28;20031;-50
2022/01/01 09:54:59;;;;;;;7.88;4.70;;;;;;;;;;5085328;28;20081;-49
2022/01/01 09:57:25;;;;;;;7.28;5.15;;;;;;;;;;5085260;28;20035;-49
2022/01/01 09:59:51;;;;;;;7.32;4.97;;;;;;;;;;5089476;28;20050;-51
2022/01/01 10:02:17;;;;;;;6.93;4.75;;;;;;;;;;5086308;28;20482;-48
2022/01/01 10:04:48;;;;;;;6.88;4.63;;;;;;;;;;5090223;28;20100;-46
2022/01/01 10:07:14;;;;;;;7.38;5.18;;;;;;;;;;5086970;28;20020;-48
2022/01/01 10:09:41;;;;;;;6.13;4.50;;;;;;;;;;5093761;28;20054;-46
2022/01/01 10:12:10;;;;;;;6.20;5.00;;;;;;;;;;5097009;28;20035;-50
2022/01/01 10:14:37;;;;;;;8.32;5.70;;;;;;;;;;5087023;28;20069;-50
2022/01/01 10:17:24;;;;;;;7.85;4.97;;;;;;;;;;5087070;28;20522;-50
2022/01/01 10:19:54;;;;;;;7.38;5.18;;;;;;;;;;5086709;28;20028;-46
2022/01/01 10:22:21;;;;;;;7.20;5.18;;;;;;;;;;5090091;28;20028;-47
2022/01/01 10:27:42;;;;;;;7.28;5.25;;;;;;;;;;5086214;28;20167;-47
2022/01/01 10:30:09;;;;;;;6.43;4.78;;;;;;;;;;5087150;28;20032;-50
2022/01/01 10:32:36;;;;;;;5.72;4.28;;;;;;;;;;5090026;28;20035;-49
2022/01/01 10:35:02;;;;;;;5.82;4.35;;;;;;;;;;5106012;28;20035;-50
2022/01/01 10:37:30;;;;;;;6.13;4.50;;;;;;;;;;5086903;28;20020;-49
2022/01/01 10:39:57;;;;;;;6.35;4.80;;;;;;;;;;5097717;28;20386;-47
2022/01/01 10:42:23;;;;;;;7.60;4.85;;;;;;;;;;5090592;28;20020;-45
2022/01/01 10:44:50;;;;;;;6.38;4.65;;;;;;;;;;5076173;28;20036;-47
2022/01/01 10:47:20;;;;;;;5.95;4.50;;;;;;;;;;5084874;28;20033;-48
2022/01/01 10:52:13;;;;;;;7.22;5.07;;;;;;;;;;5087854;28;20036;-49
2022/01/01 10:54:47;;;;;;;6.18;4.88;;;;;;;;;;5089339;28;20039;-51
2022/01/01 10:57:13;;;;;;;5.97;4.15;;;;;;;;;;5087090;28;20513;-46
2022/01/01 10:59:39;;;;;;;5.45;4.10;;;;;;;;;;5100376;28;20042;-46
2022/01/01 11:02:08;;;;;;;5.60;4.28;;;;;;;;;;5093234;28;20399;-49
2022/01/01 11:04:34;;;;;;;7.03;4.55;;;;;;;;;;5101588;28;20027;-46
2022/01/01 11:07:01;;;;;;;5.85;4.47;;;;;;;;;;5091410;28;20109;-50
2022/01/01 11:09:28;;;;;;;4.97;3.95;;;;;;;;;;5087047;28;21024;-46
2022/01/01 11:12:02;;;;;;;5.63;4.13;;;;;;;;;;5090525;28;20069;-46
2022/01/01 11:14:28;;;;;;;5.03;4.18;;;;;;;;;;5089298;28;20028;-49
2022/01/01 11:16:54;;;;;;;5.60;4.22;;;;;;;;;;5100654;28;20105;-48
2022/01/01 11:19:24;;;;;;;6.15;4.22;;;;;;;;;;5106974;28;20444;-47
2022/01/01 11:21:50;;;;;;;5.85;4.75;;;;;;;;;;5098724;28;20024;-46
2022/01/01 11:24:17;;;;;;;5.35;3.90;;;;;;;;;;5087742;28;20119;-47
2022/01/01 11:26:44;;;;;;;4.90;3.97;;;;;;;;;;5088622;28;20032;-49
2022/01/01 11:29:10;;;;;;;4.38;3.40;;;;;;;;;;5088964;28;20058;-45
2022/01/01 11:31:36;;;;;;;4.53;3.45;;;;;;;;;;5089877;28;20429;-46
2022/01/01 11:34:03;;;;;;;4.45;3.53;;;;;;;;;;5089594;28;20032;-47
2022/01/01 11:36:30;;;;;;;4.80;3.47;;;;;;;;;;5098750;28;20030;-50
2022/01/01 11:38:58;;;;;;;4.78;3.03;;;;;;;;;;5090566;28;20119;-46
2022/01/01 11:41:24;;;;;;;3.90;3.00;;;;;;;;;;5089627;28;20526;-46
2022/01/01 11:43:54;;;;;;;4.35;3.33;;;;;;;;;;5089007;28;20429;-47
2022/01/01 11:46:20;;;;;;;3.97;3.08;;;;;;;;;;5055187;28;20495;-49
2022/01/01 11:48:47;;;;;;;3.33;3.03;;;;;;;;;;5088925;28;20406;-47
2022/01/01 11:51:28;;;;;;;3.60;3.08;;;;;;;;;;5087866;28;20048;-46
2022/01/01 11:54:11;;;;;;;5.05;3.63;;;;;;;;;;5095914;28;20057;-48
2022/01/01 11:56:49;;;;;;;4.65;3.50;;;;;;;;;;5084732;28;20831;-47
2022/01/01 11:59:21;;;;;;;5.15;3.17;;;;;;;;;;5095559;28;20752;-47
2022/01/01 12:01:51;;;;;;;3.95;3.17;;;;;;;;;;5106990;28;20030;-48
2022/01/01 12:04:36;;;;;;;3.90;2.78;;;;;;;;;;5104540;28;20035;-46
2022/01/01 12:07:11;;;;;;;4.43;3.15;;;;;;;;;;5086500;28;20111;-47
2022/01/01 12:09:55;;;;;;;3.63;2.72;;;;;;;;;;5076152;28;20123;-47
2022/01/01 12:12:40;;;;;;;3.80;2.88;;;;;;;;;;5085284;28;20032;-47
2022/01/01 12:15:07;;;;;;;3.60;2.90;;;;;;;;;;5088000;28;20114;-46
2022/01/01 12:17:46;;;;;;;3.67;2.58;;;;;;;;;;5096615;28;20015;-49
2022/01/01 12:20:19;;;;;;;3.10;2.78;;;;;;;;;;5107594;28;20561;-50
2022/01/01 12:22:47;;;;;;;3.53;2.72;;;;;;;;;;5087493;28;20545;-46
2022/01/01 12:25:22;;;;;;;3.42;2.55;;;;;;;;;;5091782;28;20378;-48
2022/01/01 12:27:51;;;;;;;3.70;2.55;;;;;;;;;;5074299;28;20082;-47
2022/01/01 12:30:37;;;;;;;3.35;2.45;;;;;;;;;;5090503;28;20032;-48
2022/01/01 12:33:03;;;;;;;3.92;2.92;;;;;;;;;;5041998;28;20039;-46
2022/01/01 12:35:40;;;;;;;5.78;3.65;;;;;;;;;;5085172;28;20044;-46
2022/01/01 12:38:07;;;;;;;4.22;2.95;;;;;;;;;;5087400;28;20024;-47
2022/01/01 12:40:34;;;;;;;2.90;2.20;;;;;;;;;;5087841;28;20065;-50
2022/01/01 12:43:11;;;;;;;3.28;2.55;;;;;;;;;;5075273;28;20035;-47
2022/01/01 12:45:42;;;;;;;3.15;2.33;;;;;;;;;;5091910;28;20538;-47
2022/01/01 12:48:08;;;;;;;3.17;2.45;;;;;;;;;;5086698;28;20117;-46
2022/01/01 12:50:34;;;;;;;3.58;2.45;;;;;;;;;;5068234;28;20699;-49
2022/01/01 12:53:02;;;;;;;2.80;2.38;;;;;;;;;;5086804;28;20432;-47
2022/01/01 12:55:28;;;;;;;2.88;2.28;;;;;;;;;;5096443;28;20028;-47
2022/01/01 12:58:07;;;;;;;3.95;2.78;;;;;;;;;;5067481;28;20118;-48
2022/01/01 13:00:37;;;;;;;3.17;2.63;;;;;;;;;;5086780;28;20032;-47
2022/01/01 13:03:04;;;;;;;2.90;2.22;;;;;;;;;;5086765;28;20491;-47
2022/01/01 13:05:30;;;;;;;2.30;1.88;;;;;;;;;;5068624;28;20371;-50
2022/01/01 13:07:56;;;;;;;3.05;2.00;;;;;;;;;;5085718;28;20122;-47
2022/01/01 13:10:25;;;;;;;3.47;1.95;;;;;;;;;;5045383;28;20559;-47
2022/01/01 13:12:55;;;;;;;2.83;1.92;;;;;;;;;;5083251;28;20034;-48
2022/01/01 13:15:23;;;;;;;2.70;2.22;;;;;;;;;;5085859;28;20036;-47
2022/01/01 13:17:49;;;;;;;3.35;2.42;;;;;;;;;;5085525;28;20035;-48
2022/01/01 13:20:16;;;;;;;2.40;2.10;;;;;;;;;;5088701;28;20016;-48
2022/01/01 13:22:42;;;;;;;3.55;2.42;;;;;;;;;;5089910;28;20020;-48
2022/01/01 13:25:08;;;;;;;2.92;2.20;;;;;;;;;;5085831;28;20076;-49
2022/01/01 13:27:35;;;;;;;2.90;2.08;;;;;;;;;;5066381;28;20055;-48
2022/01/01 13:30:01;;;;;;;2.58;2.13;;;;;;;;;;5072472;28;20115;-48
2022/01/01 13:32:28;;;;;;;2.63;2.17;;;;;;;;;;5071818;28;20020;-47
2022/01/01 13:34:54;;;;;;;2.85;2.10;;;;;;;;;;5083846;28;20028;-47
2022/01/01 13:37:25;;;;;;;1.88;1.70;;;;;;;;;;5083879;28;20035;-50
2022/01/01 13:39:58;;;;;;;3.08;2.38;;;;;;;;;;5083945;28;20063;-48
2022/01/01 13:42:24;;;;;;;2.33;2.13;;;;;;;;;;5087068;28;20055;-46
2022/01/01 13:44:50;;;;;;;2.55;1.88;;;;;;;;;;5084103;28;20032;-47
2022/01/01 13:47:19;;;;;;;2.30;2.10;;;;;;;;;;5083269;28;20035;-46
2022/01/01 13:49:56;;;;;;;2.30;2.00;;;;;;;;;;5066576;28;20075;-48
2022/01/01 13:52:23;;;;;;;2.50;2.08;;;;;;;;;;5067601;28;20162;-47
2022/01/01 13:55:03;;;;;;;3.03;2.13;;;;;;;;;;5085715;28;20036;-47
2022/01/01 13:57:29;;;;;;;2.22;1.80;;;;;;;;;;5086077;28;20148;-51
2022/01/01 13:59:56;;;;;;;2.67;1.92;;;;;;;;;;5095124;28;20411;-47
2022/01/01 14:02:23;;;;;;;2.38;2.00;;;;;;;;;;5082060;28;20478;-46
2022/01/01 14:04:49;;;;;;;3.28;2.50;;;;;;;;;;5066034;28;20028;-47
2022/01/01 14:07:17;;;;;;;2.85;2.05;;;;;;;;;;5084787;28;20039;-47
2022/01/01 14:10:02;;;;;;;3.47;2.10;;;;;;;;;;5067987;28;20733;-49
2022/01/01 14:12:29;;;;;;;3.88;2.28;;;;;;;;;;5067417;28;20031;-47
2022/01/01 14:15:03;;;;;;;2.90;2.35;;;;;;;;;;5099966;28;20058;-49
2022/01/01 14:17:47;;;;;;;3.28;2.33;;;;;;;;;;5086406;28;20020;-47
2022/01/01 14:20:24;;;;;;;2.70;2.38;;;;;;;;;;5085700;28;20039;-47
2022/01/01 14:22:50;;;;;;;3.30;2.63;;;;;;;;;;5089802;28;20028;-47
2022/01/01 14:25:16;;;;;;;3.67;2.50;;;;;;;;;;5085545;28;20023;-47
2022/01/01 14:27:42;;;;;;;2.83;2.45;;;;;;;;;;5085172;28;20052;-46
2022/01/01 14:30:09;;;;;;;2.97;2.53;;;;;;;;;;5085985;28;20129;-47
2022/01/01 14:32:35;;;;;;;2.78;2.20;;;;;;;;;;5084558;28;20032;-46
2022/01/01 14:35:04;;;;;;;3.38;2.70;;;;;;;;;;5085549;28;20025;-46
2022/01/01 14:37:31;;;;;;;3.13;2.42;;;;;;;;;;5084471;28;20033;-49
2022/01/01 14:39:57;;;;;;;2.95;2.33;;;;;;;;;;5084681;28;20020;-47
2022/01/01 14:42:23;;;;;;;3.13;2.50;;;;;;;;;;5089295;28;20039;-48
2022/01/01 14:44:50;;;;;;;3.13;2.80;;;;;;;;;;5081489;28;20037;-46
2022/01/01 14:47:40;;;;;;;3.05;2.65;;;;;;;;;;5090091;28;20023;-50
2022/01/01 14:50:06;;;;;;;3.67;3.00;;;;;;;;;;5071671;28;21578;-47
2022/01/01 14:52:38;;;;;;;4.53;3.38;;;;;;;;;;5076016;28;20039;-47
2022/01/01 14:55:09;;;;;;;4.60;3.75;;;;;;;;;;5084767;28;20063;-46